Time;durP1;ratioP1;P1;durP2;ratioP2;P2;SDS_P1;SDS_P2;PMS_P1;PMS_P2;Temp;Humidity;BMP_temperature;BMP_pressure;BME280_temperature;BME280_humidity;BME280_pressure;Samples;Min_cycle;Max_cycle;Signal;HPM_P1;HPM_P2
2021/12/01 00:01:54;;;;;;;62.00;22.38;;;;;;;;;;5077694;28;20395;-66
2021/12/01 00:04:19;;;;;;;50.35;19.23;;;;;;;;;;5076449;28;20071;-66
2021/12/01 00:06:45;;;;;;;55.00;19.38;;;;;;;;;;5074629;28;20039;-66
2021/12/01 00:09:11;;;;;;;57.72;21.73;;;;;;;;;;5048553;28;20041;-66
2021/12/01 00:11:37;;;;;;;46.42;19.52;;;;;;;;;;5071915;28;20044;-67
2021/12/01 00:14:03;;;;;;;48.40;18.83;;;;;;;;;;5086674;28;20045;-65
2021/12/01 00:16:29;;;;;;;47.33;19.33;;;;;;;;;;5065206;28;20064;-66
2021/12/01 00:18:55;;;;;;;45.63;19.10;;;;;;;;;;5084882;28;20052;-65
2021/12/01 00:21:21;;;;;;;41.33;18.20;;;;;;;;;;5096778;28;20415;-65
2021/12/01 00:23:47;;;;;;;45.10;19.50;;;;;;;;;;5074864;28;20097;-66
2021/12/01 00:26:13;;;;;;;40.63;18.42;;;;;;;;;;5076649;28;20044;-65
2021/12/01 00:28:39;;;;;;;41.28;18.67;;;;;;;;;;5075351;28;20074;-65
2021/12/01 00:31:05;;;;;;;47.60;19.77;;;;;;;;;;5085696;28;20056;-66
2021/12/01 00:33:31;;;;;;;45.45;21.10;;;;;;;;;;5087730;28;20053;-66
2021/12/01 00:35:58;;;;;;;41.33;20.33;;;;;;;;;;5067672;28;20041;-65
2021/12/01 00:38:25;;;;;;;54.22;21.73;;;;;;;;;;5084243;28;20044;-65
2021/12/01 00:40:51;;;;;;;51.47;23.70;;;;;;;;;;5088543;28;20041;-66
2021/12/01 00:43:18;;;;;;;50.40;22.67;;;;;;;;;;5084622;28;20048;-66
2021/12/01 00:45:50;;;;;;;46.50;23.85;;;;;;;;;;5087624;28;20047;-66
2021/12/01 00:48:17;;;;;;;59.45;25.17;;;;;;;;;;5087445;28;20055;-65
2021/12/01 00:50:43;;;;;;;48.05;23.58;;;;;;;;;;5078306;28;20037;-65
2021/12/01 00:53:11;;;;;;;55.50;26.35;;;;;;;;;;5086490;28;20056;-65
2021/12/01 00:55:37;;;;;;;55.50;27.25;;;;;;;;;;5089396;28;20056;-66
2021/12/01 00:58:04;;;;;;;55.75;26.10;;;;;;;;;;5088960;28;20079;-65
2021/12/01 01:00:30;;;;;;;52.65;26.58;;;;;;;;;;5093522;28;20056;-66
2021/12/01 01:02:57;;;;;;;51.40;26.33;;;;;;;;;;5086334;28;20045;-67
2021/12/01 01:05:23;;;;;;;58.00;26.98;;;;;;;;;;5084465;28;20052;-67
2021/12/01 01:07:49;;;;;;;49.08;26.98;;;;;;;;;;5093722;28;20048;-66
2021/12/01 01:10:29;;;;;;;52.83;26.80;;;;;;;;;;5091961;28;20055;-67
2021/12/01 01:18:30;;;;;;;61.17;31.45;;;;;;;;;;5079066;28;20052;-66
2021/12/01 01:20:56;;;;;;;66.53;31.30;;;;;;;;;;5078569;28;20040;-66
2021/12/01 01:23:22;;;;;;;66.82;29.83;;;;;;;;;;5083239;28;20045;-67
2021/12/01 01:25:48;;;;;;;59.78;28.65;;;;;;;;;;5075892;28;20041;-66
2021/12/01 01:28:14;;;;;;;70.15;31.65;;;;;;;;;;5073834;28;20025;-66
2021/12/01 01:30:40;;;;;;;60.78;27.83;;;;;;;;;;5075253;28;20045;-66
2021/12/01 01:33:06;;;;;;;58.38;26.77;;;;;;;;;;5053833;28;20060;-66
2021/12/01 01:35:32;;;;;;;71.53;29.85;;;;;;;;;;5065947;28;20071;-66
2021/12/01 01:37:58;;;;;;;54.90;25.48;;;;;;;;;;5074864;28;20044;-66
2021/12/01 01:40:24;;;;;;;56.75;25.42;;;;;;;;;;5092026;28;20075;-65
2021/12/01 01:42:50;;;;;;;50.97;22.35;;;;;;;;;;5091104;28;20050;-66
2021/12/01 01:45:17;;;;;;;61.08;23.80;;;;;;;;;;5091234;28;20048;-65
2021/12/01 01:48:00;;;;;;;46.13;21.10;;;;;;;;;;5077544;28;20075;-67
2021/12/01 01:50:35;;;;;;;47.33;19.88;;;;;;;;;;5074886;28;20049;-66
2021/12/01 01:53:02;;;;;;;43.85;19.20;;;;;;;;;;5087080;28;20055;-66
2021/12/01 01:55:28;;;;;;;39.38;18.35;;;;;;;;;;5080908;28;20071;-65
2021/12/01 01:57:54;;;;;;;38.33;18.27;;;;;;;;;;5077432;28;20060;-66
2021/12/01 02:00:20;;;;;;;39.08;17.83;;;;;;;;;;5083531;28;20120;-66
2021/12/01 02:02:47;;;;;;;39.58;18.23;;;;;;;;;;5090464;28;20048;-67
2021/12/01 02:05:13;;;;;;;41.65;18.85;;;;;;;;;;5086584;28;20079;-66
2021/12/01 02:07:39;;;;;;;36.97;17.02;;;;;;;;;;5086775;28;20096;-66
2021/12/01 02:10:05;;;;;;;37.85;17.10;;;;;;;;;;5083405;28;20065;-65
2021/12/01 02:12:31;;;;;;;40.17;18.27;;;;;;;;;;5088370;28;20483;-65
2021/12/01 02:14:57;;;;;;;45.13;17.17;;;;;;;;;;5077712;28;20028;-66
2021/12/01 02:17:23;;;;;;;39.05;17.15;;;;;;;;;;5076112;28;20103;-68
2021/12/01 02:19:52;;;;;;;36.60;16.67;;;;;;;;;;5079368;28;20057;-68
2021/12/01 02:22:18;;;;;;;40.55;16.88;;;;;;;;;;5083220;28;20092;-67
2021/12/01 02:24:48;;;;;;;38.22;15.80;;;;;;;;;;5080844;28;20047;-67
2021/12/01 02:27:14;;;;;;;41.20;16.35;;;;;;;;;;5084220;28;20067;-67
2021/12/01 02:29:40;;;;;;;40.05;15.43;;;;;;;;;;5080025;28;20076;-67
2021/12/01 02:32:06;;;;;;;32.85;14.05;;;;;;;;;;5084552;28;20036;-65
2021/12/01 02:34:34;;;;;;;33.13;15.13;;;;;;;;;;5075776;28;20063;-67
2021/12/01 02:37:01;;;;;;;29.30;13.20;;;;;;;;;;5085740;28;20053;-66
2021/12/01 02:39:28;;;;;;;27.83;13.32;;;;;;;;;;5089304;28;20097;-65
2021/12/01 02:41:55;;;;;;;30.35;12.70;;;;;;;;;;5085585;28;20490;-65
2021/12/01 02:44:22;;;;;;;31.05;12.95;;;;;;;;;;5089508;28;20056;-65
2021/12/01 02:46:48;;;;;;;27.70;12.18;;;;;;;;;;5084977;28;20071;-66
2021/12/01 02:49:18;;;;;;;28.48;12.52;;;;;;;;;;5084680;28;20044;-66
2021/12/01 02:51:44;;;;;;;70.22;17.60;;;;;;;;;;5084731;28;20144;-66
2021/12/01 02:54:10;;;;;;;25.08;10.23;;;;;;;;;;5086972;28;20055;-66
2021/12/01 02:56:37;;;;;;;30.98;10.48;;;;;;;;;;5082570;28;20083;-65
2021/12/01 02:59:04;;;;;;;21.83;9.80;;;;;;;;;;5084199;28;20040;-68
2021/12/01 03:01:30;;;;;;;21.98;9.40;;;;;;;;;;5071119;28;20045;-67
2021/12/01 03:03:57;;;;;;;16.52;7.93;;;;;;;;;;5071897;28;20053;-67
2021/12/01 03:06:25;;;;;;;15.35;7.57;;;;;;;;;;5079268;28;20052;-67
2021/12/01 03:08:51;;;;;;;16.88;7.53;;;;;;;;;;5078554;28;20044;-66
2021/12/01 03:11:17;;;;;;;18.80;6.78;;;;;;;;;;5074858;28;20044;-67
2021/12/01 03:13:44;;;;;;;12.02;5.95;;;;;;;;;;5076951;28;20119;-67
2021/12/01 03:16:10;;;;;;;14.73;6.28;;;;;;;;;;5068480;28;20114;-66
2021/12/01 03:18:36;;;;;;;8.98;4.97;;;;;;;;;;5074487;28;20115;-66
2021/12/01 03:21:02;;;;;;;12.10;5.40;;;;;;;;;;5080990;28;20044;-66
2021/12/01 03:23:28;;;;;;;11.20;5.47;;;;;;;;;;5069699;28;20053;-65
2021/12/01 03:25:54;;;;;;;8.25;4.50;;;;;;;;;;5077063;28;20075;-65
2021/12/01 03:28:20;;;;;;;9.95;4.68;;;;;;;;;;5078305;28;20028;-66
2021/12/01 03:30:47;;;;;;;8.57;4.78;;;;;;;;;;5091342;28;20482;-66
2021/12/01 03:33:15;;;;;;;8.32;4.60;;;;;;;;;;5054662;28;20509;-66
2021/12/01 03:35:42;;;;;;;8.88;5.00;;;;;;;;;;5058296;28;20055;-66
2021/12/01 03:38:08;;;;;;;8.93;5.18;;;;;;;;;;5072482;28;20057;-67
2021/12/01 03:40:34;;;;;;;8.05;4.55;;;;;;;;;;5063991;28;20406;-67
2021/12/01 03:43:01;;;;;;;11.80;5.05;;;;;;;;;;5062518;28;20049;-66
2021/12/01 03:45:27;;;;;;;9.23;4.75;;;;;;;;;;5080374;28;20075;-67
2021/12/01 03:47:53;;;;;;;7.90;4.45;;;;;;;;;;5069011;28;20478;-67
2021/12/01 03:50:19;;;;;;;7.60;4.65;;;;;;;;;;5081075;28;20041;-66
2021/12/01 03:52:45;;;;;;;17.73;5.95;;;;;;;;;;5084720;28;20105;-66
2021/12/01 03:55:11;;;;;;;7.50;5.05;;;;;;;;;;5073781;28;20372;-67
2021/12/01 03:57:37;;;;;;;17.60;6.00;;;;;;;;;;5077548;28;20028;-67
2021/12/01 04:00:07;;;;;;;9.35;5.40;;;;;;;;;;5080918;28;20045;-67
2021/12/01 04:02:33;;;;;;;21.45;6.78;;;;;;;;;;5066215;28;20048;-67
2021/12/01 04:04:59;;;;;;;25.67;8.18;;;;;;;;;;5087429;28;20047;-67
2021/12/01 04:07:25;;;;;;;9.50;5.55;;;;;;;;;;5075562;28;20045;-67
2021/12/01 04:09:52;;;;;;;8.18;5.45;;;;;;;;;;5081050;28;20036;-68
2021/12/01 04:12:18;;;;;;;8.25;5.45;;;;;;;;;;5075040;28;20051;-66
2021/12/01 04:14:44;;;;;;;9.23;5.38;;;;;;;;;;5071938;28;20059;-68
2021/12/01 04:17:11;;;;;;;8.80;5.07;;;;;;;;;;5085297;28;20056;-66
2021/12/01 04:19:37;;;;;;;10.68;5.30;;;;;;;;;;5079416;28;20145;-68
2021/12/01 04:22:03;;;;;;;9.55;5.20;;;;;;;;;;5086601;28;20051;-67
2021/12/01 04:24:29;;;;;;;8.57;5.47;;;;;;;;;;5081112;28;20033;-67
2021/12/01 04:26:56;;;;;;;7.90;4.80;;;;;;;;;;5086134;28;20048;-66
2021/12/01 04:29:22;;;;;;;8.20;5.13;;;;;;;;;;5082083;28;20045;-67
2021/12/01 04:31:48;;;;;;;12.23;4.93;;;;;;;;;;5081149;28;20056;-66
2021/12/01 04:34:14;;;;;;;9.05;4.70;;;;;;;;;;5072797;28;20109;-67
2021/12/01 04:36:43;;;;;;;7.10;4.32;;;;;;;;;;5081345;28;20049;-66
2021/12/01 04:39:11;;;;;;;7.00;4.28;;;;;;;;;;5087838;28;20040;-68
2021/12/01 04:41:48;;;;;;;9.55;4.03;;;;;;;;;;5083913;28;20040;-67
2021/12/01 04:44:15;;;;;;;7.65;3.30;;;;;;;;;;5070517;28;20060;-66
2021/12/01 04:46:43;;;;;;;6.03;3.50;;;;;;;;;;5095481;28;20081;-65
2021/12/01 04:49:10;;;;;;;7.53;3.45;;;;;;;;;;5064297;28;20067;-67
2021/12/01 04:51:36;;;;;;;9.45;3.83;;;;;;;;;;5064813;28;20064;-67
2021/12/01 04:54:03;;;;;;;11.20;4.32;;;;;;;;;;5083208;28;20021;-68
2021/12/01 04:56:29;;;;;;;10.82;4.65;;;;;;;;;;5093239;28;20055;-66
2021/12/01 04:58:56;;;;;;;6.63;3.47;;;;;;;;;;5088099;28;20040;-66
2021/12/01 05:01:22;;;;;;;5.85;3.40;;;;;;;;;;5081592;28;20032;-66
2021/12/01 05:03:47;;;;;;;4.82;2.50;;;;;;;;;;5090411;28;20079;-66
2021/12/01 05:06:15;;;;;;;3.08;2.55;;;;;;;;;;5079094;28;20400;-66
2021/12/01 05:08:42;;;;;;;6.18;3.22;;;;;;;;;;5069941;28;20040;-67
2021/12/01 05:11:08;;;;;;;3.47;2.47;;;;;;;;;;5080658;28;20110;-66
2021/12/01 05:13:34;;;;;;;7.82;3.10;;;;;;;;;;5082789;28;20466;-67
2021/12/01 05:16:00;;;;;;;5.07;2.90;;;;;;;;;;5070117;28;20096;-66
2021/12/01 05:18:26;;;;;;;8.05;3.50;;;;;;;;;;5093363;28;20067;-68
2021/12/01 05:20:52;;;;;;;4.60;3.40;;;;;;;;;;5080094;28;20048;-65
2021/12/01 05:23:18;;;;;;;4.18;2.55;;;;;;;;;;5074098;28;20551;-66
2021/12/01 05:25:44;;;;;;;4.22;2.90;;;;;;;;;;5082646;28;20072;-67
2021/12/01 05:28:11;;;;;;;4.32;2.63;;;;;;;;;;5067579;28;20475;-66
2021/12/01 05:30:37;;;;;;;3.92;2.90;;;;;;;;;;5077606;28;20041;-67
2021/12/01 05:33:08;;;;;;;4.50;3.13;;;;;;;;;;5083306;28;20036;-67
2021/12/01 05:35:34;;;;;;;5.63;3.13;;;;;;;;;;5065535;28;20085;-67
2021/12/01 05:38:00;;;;;;;5.57;3.33;;;;;;;;;;5073863;28;20055;-66
2021/12/01 05:40:27;;;;;;;3.80;3.03;;;;;;;;;;5073872;28;20041;-67
2021/12/01 05:42:53;;;;;;;4.90;2.97;;;;;;;;;;5083249;28;20070;-69
2021/12/01 05:45:19;;;;;;;4.60;3.38;;;;;;;;;;5085658;28;20029;-70
2021/12/01 05:47:45;;;;;;;3.80;2.97;;;;;;;;;;5086698;28;20084;-67
2021/12/01 05:50:11;;;;;;;5.68;3.30;;;;;;;;;;5075250;28;20135;-66
2021/12/01 05:52:37;;;;;;;4.22;3.15;;;;;;;;;;5082090;28;20040;-67
2021/12/01 05:55:04;;;;;;;5.47;3.47;;;;;;;;;;5079537;28;20044;-66
2021/12/01 05:57:30;;;;;;;4.40;3.38;;;;;;;;;;5080724;28;20118;-66
2021/12/01 05:59:56;;;;;;;5.88;3.53;;;;;;;;;;5086419;28;20041;-66
2021/12/01 06:02:22;;;;;;;4.85;3.13;;;;;;;;;;5087714;28;20078;-67
2021/12/01 06:04:48;;;;;;;4.50;3.00;;;;;;;;;;5079098;28;20017;-66
2021/12/01 06:07:15;;;;;;;5.07;3.30;;;;;;;;;;5087646;28;20252;-66
2021/12/01 06:09:41;;;;;;;3.58;2.85;;;;;;;;;;5084128;28;20119;-67
2021/12/01 06:12:07;;;;;;;5.47;3.35;;;;;;;;;;5084986;28;20044;-65
2021/12/01 06:14:35;;;;;;;5.78;3.58;;;;;;;;;;5086329;28;20041;-66
2021/12/01 06:17:01;;;;;;;4.22;3.10;;;;;;;;;;5082890;28;20106;-66
2021/12/01 06:19:27;;;;;;;5.22;3.63;;;;;;;;;;5093132;28;20045;-66
2021/12/01 06:21:53;;;;;;;5.35;3.90;;;;;;;;;;5086303;28;20041;-67
2021/12/01 06:24:19;;;;;;;5.45;3.95;;;;;;;;;;5079476;28;20026;-66
2021/12/01 06:26:45;;;;;;;5.70;3.80;;;;;;;;;;5085755;28;20049;-66
2021/12/01 06:29:11;;;;;;;4.53;3.90;;;;;;;;;;5085961;28;20062;-67
2021/12/01 06:31:37;;;;;;;4.57;3.83;;;;;;;;;;5087029;28;20124;-67
2021/12/01 06:34:03;;;;;;;5.93;4.00;;;;;;;;;;5079040;28;20053;-65
2021/12/01 06:36:29;;;;;;;5.32;3.78;;;;;;;;;;5079866;28;20029;-66
2021/12/01 06:38:55;;;;;;;5.43;3.95;;;;;;;;;;5084469;28;20109;-67
2021/12/01 06:41:21;;;;;;;5.20;4.28;;;;;;;;;;5078891;28;20040;-67
2021/12/01 06:43:47;;;;;;;6.53;4.50;;;;;;;;;;5086358;28;20041;-68
2021/12/01 06:46:13;;;;;;;6.43;4.10;;;;;;;;;;5083189;28;20085;-68
2021/12/01 06:48:39;;;;;;;5.68;4.00;;;;;;;;;;5086711;28;20029;-66
2021/12/01 06:51:05;;;;;;;9.02;4.80;;;;;;;;;;5079944;28;20270;-68
2021/12/01 06:53:31;;;;;;;20.20;5.32;;;;;;;;;;5090337;28;20048;-68
2021/12/01 06:55:57;;;;;;;12.88;4.55;;;;;;;;;;5083983;28;20025;-65
2021/12/01 06:58:23;;;;;;;7.55;4.85;;;;;;;;;;5088869;28;20113;-69
2021/12/01 07:00:49;;;;;;;11.70;4.78;;;;;;;;;;5093988;28;20065;-66
2021/12/01 07:03:15;;;;;;;15.02;5.82;;;;;;;;;;5084708;28;20025;-68
2021/12/01 07:05:41;;;;;;;6.00;3.55;;;;;;;;;;5074233;28;20052;-66
2021/12/01 07:08:07;;;;;;;6.95;3.83;;;;;;;;;;5090468;28;20059;-67
2021/12/01 07:10:33;;;;;;;6.55;3.65;;;;;;;;;;5082414;28;20053;-67
2021/12/01 07:12:59;;;;;;;11.25;4.75;;;;;;;;;;5089045;28;20055;-66
2021/12/01 07:15:25;;;;;;;8.25;3.83;;;;;;;;;;5070258;28;20070;-67
2021/12/01 07:17:52;;;;;;;4.07;3.58;;;;;;;;;;5091434;28;20039;-65
2021/12/01 07:20:18;;;;;;;40.50;8.57;;;;;;;;;;5092912;28;20029;-66
2021/12/01 07:22:44;;;;;;;3.95;3.25;;;;;;;;;;5091973;28;20045;-67
2021/12/01 07:25:12;;;;;;;10.82;4.28;;;;;;;;;;5094190;28;20068;-66
2021/12/01 07:27:39;;;;;;;7.32;3.95;;;;;;;;;;5085387;28;20093;-66
2021/12/01 07:30:05;;;;;;;24.15;6.03;;;;;;;;;;5094458;28;20052;-65
2021/12/01 07:32:31;;;;;;;13.35;4.10;;;;;;;;;;5087998;28;20028;-66
2021/12/01 07:34:57;;;;;;;9.73;4.10;;;;;;;;;;5080488;28;20074;-66
2021/12/01 07:37:23;;;;;;;8.45;3.95;;;;;;;;;;5076660;28;20104;-66
2021/12/01 07:39:50;;;;;;;17.83;6.30;;;;;;;;;;5079547;28;20100;-67
2021/12/01 07:42:16;;;;;;;6.47;3.75;;;;;;;;;;5082984;28;20105;-66
2021/12/01 07:44:43;;;;;;;9.90;4.35;;;;;;;;;;5097205;28;20047;-66
2021/12/01 07:47:09;;;;;;;8.10;3.67;;;;;;;;;;5074213;28;20138;-67
2021/12/01 07:49:35;;;;;;;47.55;9.43;;;;;;;;;;5074919;28;20083;-66
2021/12/01 07:52:03;;;;;;;3.22;2.83;;;;;;;;;;5094678;28;20044;-67
2021/12/01 07:54:29;;;;;;;9.37;3.60;;;;;;;;;;5091600;28;20045;-67
2021/12/01 07:56:55;;;;;;;11.80;4.05;;;;;;;;;;5078729;28;20310;-67
2021/12/01 07:59:21;;;;;;;3.25;2.70;;;;;;;;;;5079971;28;20138;-66
2021/12/01 08:01:47;;;;;;;5.63;2.83;;;;;;;;;;5081469;28;20029;-67
2021/12/01 08:04:13;;;;;;;3.80;2.83;;;;;;;;;;5076395;28;20040;-64
2021/12/01 08:06:40;;;;;;;20.50;5.38;;;;;;;;;;5086571;28;20096;-65
2021/12/01 08:09:07;;;;;;;12.35;3.42;;;;;;;;;;5089531;28;20109;-68
2021/12/01 08:11:33;;;;;;;6.03;2.50;;;;;;;;;;5079943;28;20047;-69
2021/12/01 08:13:59;;;;;;;4.75;2.22;;;;;;;;;;5080717;28;20029;-64
2021/12/01 08:16:25;;;;;;;5.75;2.58;;;;;;;;;;5085939;28;20045;-66
2021/12/01 08:18:53;;;;;;;9.45;3.28;;;;;;;;;;5086080;28;20044;-66
2021/12/01 08:21:20;;;;;;;31.63;7.43;;;;;;;;;;5083483;28;20045;-67
2021/12/01 08:23:46;;;;;;;16.33;4.63;;;;;;;;;;5096864;28;20066;-67
2021/12/01 08:26:12;;;;;;;22.35;5.85;;;;;;;;;;5090263;28;20043;-66
2021/12/01 08:28:38;;;;;;;9.27;3.88;;;;;;;;;;5093485;28;20080;-65
2021/12/01 08:31:04;;;;;;;5.43;3.47;;;;;;;;;;5084836;28;20021;-66
2021/12/01 08:33:30;;;;;;;5.05;2.97;;;;;;;;;;5084039;28;20044;-66
2021/12/01 08:35:56;;;;;;;9.95;3.63;;;;;;;;;;5090154;28;20020;-68
2021/12/01 08:38:22;;;;;;;11.85;3.85;;;;;;;;;;5098002;28;20039;-65
2021/12/01 08:40:48;;;;;;;3.97;2.70;;;;;;;;;;5086269;28;20044;-67
2021/12/01 08:43:14;;;;;;;13.40;4.47;;;;;;;;;;5096220;28;20048;-64
2021/12/01 08:45:40;;;;;;;37.67;8.25;;;;;;;;;;5096093;28;20044;-67
2021/12/01 08:48:06;;;;;;;10.32;4.00;;;;;;;;;;5088325;28;20041;-66
2021/12/01 08:50:33;;;;;;;5.70;3.15;;;;;;;;;;5096392;28;20042;-67
2021/12/01 08:52:59;;;;;;;5.72;3.03;;;;;;;;;;5083958;28;20041;-68
2021/12/01 08:55:25;;;;;;;5.43;3.65;;;;;;;;;;5083962;28;20056;-67
2021/12/01 08:57:51;;;;;;;9.98;4.55;;;;;;;;;;5077583;28;20402;-66
2021/12/01 09:00:18;;;;;;;6.70;4.00;;;;;;;;;;5091096;28;20056;-65
2021/12/01 09:02:44;;;;;;;18.95;5.22;;;;;;;;;;5073782;28;20051;-66
2021/12/01 09:05:10;;;;;;;13.30;4.55;;;;;;;;;;5082697;28;20068;-65
2021/12/01 09:07:36;;;;;;;5.75;4.03;;;;;;;;;;5080706;28;20057;-66
2021/12/01 09:10:03;;;;;;;10.48;4.28;;;;;;;;;;5084421;28;20115;-66
2021/12/01 09:12:29;;;;;;;9.82;4.82;;;;;;;;;;5068063;28;20068;-67
2021/12/01 09:14:56;;;;;;;5.63;4.07;;;;;;;;;;5074508;28;20053;-66
2021/12/01 09:17:23;;;;;;;6.10;3.65;;;;;;;;;;5077880;28;20061;-66
2021/12/01 09:19:49;;;;;;;8.57;4.30;;;;;;;;;;5090330;28;20051;-66
2021/12/01 09:22:16;;;;;;;11.65;3.65;;;;;;;;;;5083677;28;20068;-67
2021/12/01 09:24:43;;;;;;;5.90;2.10;;;;;;;;;;5087717;28;20044;-67
2021/12/01 09:27:09;;;;;;;11.93;2.95;;;;;;;;;;5087349;28;20028;-66
2021/12/01 09:29:35;;;;;;;8.88;2.63;;;;;;;;;;5088671;28;20041;-66
2021/12/01 09:32:01;;;;;;;31.23;5.57;;;;;;;;;;5083999;28;20485;-66
2021/12/01 09:34:27;;;;;;;18.98;3.25;;;;;;;;;;5061841;28;20143;-66
2021/12/01 09:36:53;;;;;;;16.77;3.35;;;;;;;;;;5083801;28;20052;-66
2021/12/01 09:39:19;;;;;;;10.13;2.10;;;;;;;;;;5078612;28;20128;-66
2021/12/01 09:41:46;;;;;;;6.53;1.73;;;;;;;;;;5063851;28;20582;-67
2021/12/01 09:44:12;;;;;;;9.43;3.45;;;;;;;;;;5076802;28;20063;-67
2021/12/01 09:46:38;;;;;;;8.05;1.90;;;;;;;;;;5080761;28;20045;-68
2021/12/01 09:49:04;;;;;;;10.77;2.17;;;;;;;;;;5069902;28;20052;-67
2021/12/01 09:51:30;;;;;;;8.13;2.25;;;;;;;;;;5072059;28;20045;-66
2021/12/01 09:53:57;;;;;;;9.75;1.95;;;;;;;;;;5084098;28;20052;-67
2021/12/01 09:56:25;;;;;;;5.28;1.83;;;;;;;;;;5081575;28;20036;-68
2021/12/01 09:58:51;;;;;;;11.85;1.67;;;;;;;;;;5073005;28;20053;-67
2021/12/01 10:01:18;;;;;;;11.05;1.65;;;;;;;;;;5077413;28;20100;-66
2021/12/01 10:03:44;;;;;;;14.32;2.67;;;;;;;;;;5067861;28;20048;-67
2021/12/01 10:06:17;;;;;;;8.00;1.88;;;;;;;;;;5075952;28;20072;-66
2021/12/01 10:08:44;;;;;;;11.20;1.65;;;;;;;;;;5068812;28;20076;-65
2021/12/01 10:11:21;;;;;;;14.02;2.08;;;;;;;;;;5076234;28;20048;-66
2021/12/01 10:13:55;;;;;;;4.10;1.38;;;;;;;;;;5070163;28;20053;-68
2021/12/01 10:16:22;;;;;;;16.75;3.17;;;;;;;;;;5058707;28;20041;-67
2021/12/01 10:18:56;;;;;;;8.98;2.00;;;;;;;;;;5080695;28;20048;-67
2021/12/01 10:21:32;;;;;;;8.18;1.40;;;;;;;;;;5076974;28;20087;-66
2021/12/01 10:23:59;;;;;;;9.05;1.30;;;;;;;;;;5085283;28;20087;-67
2021/12/01 10:26:25;;;;;;;6.78;1.05;;;;;;;;;;5068706;28;20128;-67
2021/12/01 10:28:53;;;;;;;5.50;1.15;;;;;;;;;;5074897;28;20059;-66
2021/12/01 10:31:40;;;;;;;7.88;1.38;;;;;;;;;;5081464;28;20161;-68
2021/12/01 10:34:26;;;;;;;8.20;1.15;;;;;;;;;;5061344;28;20389;-68
2021/12/01 10:37:11;;;;;;;6.68;1.50;;;;;;;;;;5073691;28;20067;-65
2021/12/01 10:39:37;;;;;;;7.72;1.02;;;;;;;;;;5068434;28;20045;-67
2021/12/01 10:42:08;;;;;;;14.77;1.50;;;;;;;;;;5072251;28;20076;-64
2021/12/01 10:44:34;;;;;;;20.75;3.42;;;;;;;;;;5072312;28;20047;-66
2021/12/01 10:47:06;;;;;;;9.88;1.40;;;;;;;;;;5057661;28;20457;-66
2021/12/01 10:49:34;;;;;;;11.95;2.00;;;;;;;;;;5080707;28;20045;-66
2021/12/01 10:52:00;;;;;;;15.15;2.38;;;;;;;;;;5052491;28;20052;-66
2021/12/01 10:54:26;;;;;;;23.33;3.38;;;;;;;;;;5066303;28;20045;-64
2021/12/01 10:57:11;;;;;;;7.07;1.48;;;;;;;;;;5080471;28;20044;-67
2021/12/01 10:59:44;;;;;;;5.55;1.02;;;;;;;;;;5072329;28;20092;-66
2021/12/01 11:02:11;;;;;;;9.75;1.20;;;;;;;;;;5068103;28;20077;-65
2021/12/01 11:04:48;;;;;;;11.55;1.98;;;;;;;;;;5080809;28;20068;-66
2021/12/01 11:07:30;;;;;;;10.02;2.38;;;;;;;;;;5068501;28;20374;-67
2021/12/01 11:10:09;;;;;;;12.18;2.53;;;;;;;;;;5075665;28;20377;-66
2021/12/01 11:12:35;;;;;;;;;;;;;;;;;;5076325;28;20055;-66
2021/12/01 11:15:19;;;;;;;9.07;1.10;;;;;;;;;;5072499;28;19920;-65
2021/12/01 11:17:45;;;;;;;5.55;1.23;;;;;;;;;;5066045;28;20073;-66
2021/12/01 11:20:12;;;;;;;7.18;1.30;;;;;;;;;;5074561;28;20056;-65
2021/12/01 11:22:38;;;;;;;8.65;1.30;;;;;;;;;;5076012;28;20540;-66
2021/12/01 11:25:21;;;;;;;15.50;1.85;;;;;;;;;;5077919;28;20054;-66
2021/12/01 11:27:47;;;;;;;6.00;1.10;;;;;;;;;;5079435;28;20048;-65
2021/12/01 11:30:14;;;;;;;12.60;1.60;;;;;;;;;;5084663;28;20108;-66
2021/12/01 11:32:40;;;;;;;14.30;2.17;;;;;;;;;;5081415;28;20041;-65
2021/12/01 11:35:06;;;;;;;10.05;1.38;;;;;;;;;;5073843;28;20071;-65
2021/12/01 11:37:32;;;;;;;8.55;1.60;;;;;;;;;;5069035;28;20462;-65
2021/12/01 11:39:58;;;;;;;12.40;1.90;;;;;;;;;;5082497;28;20071;-66
2021/12/01 11:42:25;;;;;;;12.15;2.15;;;;;;;;;;5071546;28;20159;-67
2021/12/01 11:44:51;;;;;;;10.45;2.15;;;;;;;;;;5054301;28;20391;-66
2021/12/01 11:47:18;;;;;;;8.50;1.10;;;;;;;;;;5079603;28;20066;-66
2021/12/01 11:49:44;;;;;;;14.85;2.00;;;;;;;;;;5070113;28;20068;-67
2021/12/01 11:52:10;;;;;;;17.33;2.42;;;;;;;;;;5077625;28;20052;-66
2021/12/01 11:54:46;;;;;;;14.38;2.33;;;;;;;;;;5070016;28;20053;-65
2021/12/01 11:57:12;;;;;;;16.67;2.28;;;;;;;;;;5066839;28;20055;-65
2021/12/01 11:59:43;;;;;;;14.55;2.13;;;;;;;;;;5065682;28;20079;-66
2021/12/01 12:02:16;;;;;;;20.85;3.78;;;;;;;;;;5067368;28;20025;-67
2021/12/01 12:04:43;;;;;;;10.82;2.30;;;;;;;;;;5062013;28;20510;-66
2021/12/01 12:07:10;;;;;;;13.20;2.13;;;;;;;;;;5059155;28;20110;-66
2021/12/01 12:09:37;;;;;;;15.25;2.42;;;;;;;;;;5061717;28;20055;-67
2021/12/01 12:12:11;;;;;;;12.07;1.58;;;;;;;;;;5058947;28;20057;-66
2021/12/01 12:14:46;;;;;;;13.20;2.67;;;;;;;;;;5042403;28;20055;-65
2021/12/01 12:17:14;;;;;;;11.25;2.00;;;;;;;;;;5064321;28;20060;-66
2021/12/01 12:19:49;;;;;;;19.10;2.60;;;;;;;;;;5058937;28;20476;-66
2021/12/01 12:22:19;;;;;;;13.10;2.10;;;;;;;;;;5072057;28;20487;-66
2021/12/01 12:24:54;;;;;;;20.50;2.55;;;;;;;;;;5071132;28;20053;-66
2021/12/01 12:27:39;;;;;;;61.45;10.40;;;;;;;;;;5074924;28;20044;-66
2021/12/01 12:30:25;;;;;;;11.48;2.30;;;;;;;;;;5073865;28;20083;-66
2021/12/01 12:33:11;;;;;;;15.10;2.75;;;;;;;;;;5054311;28;20078;-67
2021/12/01 12:35:44;;;;;;;16.52;2.63;;;;;;;;;;5067662;28;20075;-67
2021/12/01 12:38:11;;;;;;;14.43;2.85;;;;;;;;;;5063950;28;20136;-67
2021/12/01 12:40:38;;;;;;;14.32;2.42;;;;;;;;;;5063224;28;20120;-66
2021/12/01 12:43:05;;;;;;;18.13;4.93;;;;;;;;;;5074614;28;20041;-66
2021/12/01 12:45:31;;;;;;;14.35;2.63;;;;;;;;;;5058606;28;20037;-66
2021/12/01 12:47:57;;;;;;;11.20;2.08;;;;;;;;;;5061909;28;20442;-66
2021/12/01 12:50:24;;;;;;;12.63;2.20;;;;;;;;;;5064419;28;20045;-67
2021/12/01 12:53:08;;;;;;;10.73;1.83;;;;;;;;;;5057943;28;20083;-66
2021/12/01 12:55:39;;;;;;;13.27;1.77;;;;;;;;;;5063941;28;20087;-67
2021/12/01 12:58:07;;;;;;;11.10;1.70;;;;;;;;;;5059765;28;20060;-67
2021/12/01 13:00:36;;;;;;;10.27;2.45;;;;;;;;;;5064285;28;20063;-67
2021/12/01 13:03:22;;;;;;;13.45;2.35;;;;;;;;;;5060652;28;20049;-67
2021/12/01 13:05:48;;;;;;;13.57;1.88;;;;;;;;;;5061715;28;20107;-67
2021/12/01 13:08:33;;;;;;;20.05;3.70;;;;;;;;;;5082726;28;20041;-67
2021/12/01 13:11:02;;;;;;;15.18;2.03;;;;;;;;;;5080012;28;20048;-66
2021/12/01 13:13:30;;;;;;;16.52;2.45;;;;;;;;;;5074481;28;20043;-67
2021/12/01 13:15:56;;;;;;;19.52;2.67;;;;;;;;;;5071838;28;20045;-68
2021/12/01 13:18:23;;;;;;;12.88;2.10;;;;;;;;;;5054597;28;20045;-67
2021/12/01 13:20:54;;;;;;;13.32;2.08;;;;;;;;;;5072117;28;20052;-66
2021/12/01 13:23:21;;;;;;;15.93;2.10;;;;;;;;;;5073496;28;20045;-67
2021/12/01 13:25:56;;;;;;;10.80;1.70;;;;;;;;;;5060664;28;20045;-66
2021/12/01 13:28:30;;;;;;;9.57;1.60;;;;;;;;;;5057746;28;20044;-67
2021/12/01 13:30:58;;;;;;;13.35;1.75;;;;;;;;;;5054841;28;20136;-67
2021/12/01 13:33:24;;;;;;;14.18;2.17;;;;;;;;;;5056329;28;20060;-67
2021/12/01 13:35:51;;;;;;;17.70;1.92;;;;;;;;;;5046895;28;20037;-66
2021/12/01 13:38:27;;;;;;;6.93;1.50;;;;;;;;;;5046251;28;20053;-65
2021/12/01 13:40:53;;;;;;;10.02;1.50;;;;;;;;;;5078335;28;20044;-66
2021/12/01 13:43:19;;;;;;;5.43;1.17;;;;;;;;;;5049180;28;20116;-67
2021/12/01 13:45:59;;;;;;;8.95;1.20;;;;;;;;;;5044199;28;20048;-66
2021/12/01 13:48:25;;;;;;;17.25;1.92;;;;;;;;;;5058794;28;20048;-66
2021/12/01 13:50:51;;;;;;;12.60;2.25;;;;;;;;;;5077375;28;20041;-66
2021/12/01 13:53:17;;;;;;;13.85;1.55;;;;;;;;;;5053914;28;20417;-66
2021/12/01 13:55:44;;;;;;;16.33;2.03;;;;;;;;;;5067929;28;20041;-67
2021/12/01 13:58:11;;;;;;;10.48;1.58;;;;;;;;;;5025532;28;20400;-65
2021/12/01 14:00:42;;;;;;;13.52;1.88;;;;;;;;;;5069171;28;20462;-67
2021/12/01 14:03:10;;;;;;;15.18;1.98;;;;;;;;;;5061143;28;20128;-65
2021/12/01 14:05:38;;;;;;;12.40;1.80;;;;;;;;;;5079044;28;20044;-66
2021/12/01 14:08:07;;;;;;;9.63;1.70;;;;;;;;;;5063012;28;20041;-67
2021/12/01 14:10:37;;;;;;;10.65;1.70;;;;;;;;;;5075443;28;20512;-66
2021/12/01 14:13:04;;;;;;;9.55;1.70;;;;;;;;;;5083598;28;20099;-66
2021/12/01 14:15:32;;;;;;;7.78;1.40;;;;;;;;;;5088786;28;20068;-67
2021/12/01 14:17:58;;;;;;;9.82;1.70;;;;;;;;;;5069257;28;20060;-67
2021/12/01 14:20:25;;;;;;;10.68;1.65;;;;;;;;;;5063397;28;20041;-67
2021/12/01 14:22:55;;;;;;;11.60;1.77;;;;;;;;;;5074182;28;20076;-67
2021/12/01 14:25:21;;;;;;;10.38;1.95;;;;;;;;;;5070537;28;20037;-66
2021/12/01 14:27:49;;;;;;;8.57;1.40;;;;;;;;;;5070639;28;20051;-65
2021/12/01 14:30:17;;;;;;;7.25;1.15;;;;;;;;;;5063898;28;20053;-66
2021/12/01 14:32:45;;;;;;;7.30;1.40;;;;;;;;;;5080090;28;20048;-67
2021/12/01 14:35:12;;;;;;;11.85;1.55;;;;;;;;;;5081773;28;20075;-65
2021/12/01 14:37:38;;;;;;;14.77;1.83;;;;;;;;;;5073301;28;20483;-65
2021/12/01 14:40:14;;;;;;;13.57;2.15;;;;;;;;;;5068514;28;20044;-66
2021/12/01 14:42:44;;;;;;;18.75;2.78;;;;;;;;;;5083135;28;20076;-67